createdAt,value
2022-11-14T00:00:24.100Z,86.91
2022-11-14T00:02:50.688Z,87.15
2022-11-14T00:05:17.572Z,86.96
2022-11-14T00:07:44.735Z,86.65
2022-11-14T00:10:11.534Z,87.03
2022-11-14T00:12:38.202Z,87.10
2022-11-14T00:15:05.357Z,87.34
2022-11-14T00:17:31.876Z,86.68
2022-11-14T00:19:58.487Z,86.87
2022-11-14T00:22:25.064Z,87.11
2022-11-14T00:24:51.553Z,87.18
2022-11-14T00:27:18.226Z,87.12
2022-11-14T00:29:44.750Z,87.25
2022-11-14T00:32:11.401Z,87.35
2022-11-14T00:34:37.953Z,87.28
2022-11-14T00:37:04.594Z,87.22
2022-11-14T00:39:31.225Z,87.56
2022-11-14T00:41:57.794Z,87.36
2022-11-14T00:44:24.380Z,87.17
2022-11-14T00:46:50.918Z,87.00
2022-11-14T00:49:17.447Z,87.04
2022-11-14T00:51:43.925Z,87.58
2022-11-14T00:54:10.451Z,87.33
2022-11-14T00:56:37.051Z,87.55
2022-11-14T00:59:03.621Z,87.67
2022-11-14T01:01:30.149Z,87.28
2022-11-14T01:03:56.691Z,87.34
2022-11-14T01:06:23.246Z,87.22
2022-11-14T01:08:53.095Z,87.29
2022-11-14T01:11:21.644Z,87.21
2022-11-14T01:13:48.230Z,86.88
2022-11-14T01:16:14.935Z,86.77
2022-11-14T01:18:42.051Z,86.55
2022-11-14T01:21:11.204Z,86.38
2022-11-14T01:23:38.349Z,86.63
2022-11-14T01:26:08.596Z,86.54
2022-11-14T01:28:35.537Z,86.86
2022-11-14T01:31:09.310Z,86.40
2022-11-14T01:33:35.960Z,86.33
2022-11-14T01:36:02.508Z,86.02
2022-11-14T01:38:29.285Z,86.26
2022-11-14T01:40:56.027Z,86.34
2022-11-14T01:43:37.536Z,86.59
2022-11-14T01:46:10.830Z,86.32
2022-11-14T01:48:45.778Z,86.27
2022-11-14T01:51:15.389Z,86.51
2022-11-14T01:53:44.405Z,86.21
2022-11-14T01:56:15.135Z,86.27
2022-11-14T01:58:45.941Z,86.66
2022-11-14T02:01:13.392Z,86.50
2022-11-14T02:03:42.757Z,86.24
2022-11-14T02:06:13.512Z,86.47
2022-11-14T02:08:41.385Z,86.18
2022-11-14T02:11:10.987Z,86.12
2022-11-14T02:13:38.272Z,85.62
2022-11-14T02:16:06.179Z,86.13
2022-11-14T02:18:32.862Z,86.14
2022-11-14T02:20:59.409Z,85.87
2022-11-14T02:23:28.471Z,85.79
2022-11-14T02:25:55.346Z,85.94
2022-11-14T02:28:22.267Z,85.94
2022-11-14T02:30:49.300Z,86.08
2022-11-14T02:33:16.167Z,85.82
2022-11-14T02:35:42.819Z,85.71
2022-11-14T02:38:09.472Z,85.89
2022-11-14T02:40:36.003Z,86.10
2022-11-14T02:43:02.522Z,85.69
2022-11-14T02:45:29.079Z,85.80
2022-11-14T02:47:55.710Z,85.76
2022-11-14T02:50:22.387Z,85.57
2022-11-14T02:52:49.195Z,85.81
2022-11-14T02:55:15.887Z,85.94
2022-11-14T02:57:42.394Z,85.74
2022-11-14T03:00:14.561Z,85.96
2022-11-14T03:02:41.900Z,85.91
2022-11-14T03:05:08.764Z,85.70
2022-11-14T03:07:35.501Z,85.53
2022-11-14T03:10:02.299Z,85.13
2022-11-14T03:12:28.799Z,85.89
2022-11-14T03:14:55.312Z,85.41
2022-11-14T03:17:24.616Z,85.37
2022-11-14T03:19:51.309Z,85.41
2022-11-14T03:22:17.848Z,85.52
2022-11-14T03:24:44.486Z,85.62
2022-11-14T03:27:10.991Z,85.46
2022-11-14T03:29:37.507Z,85.54
2022-11-14T03:32:04.269Z,85.34
2022-11-14T03:34:30.788Z,85.48
2022-11-14T03:36:57.395Z,85.65
2022-11-14T03:39:23.931Z,85.52
2022-11-14T03:41:50.446Z,85.50
2022-11-14T03:44:16.960Z,85.55
2022-11-14T03:46:43.530Z,85.50
2022-11-14T03:49:10.150Z,85.15
2022-11-14T03:51:36.683Z,85.38
2022-11-14T03:54:03.337Z,85.30
2022-11-14T03:56:29.857Z,85.39
2022-11-14T03:58:56.441Z,85.21
2022-11-14T04:01:23.055Z,85.13
2022-11-14T04:03:49.624Z,85.27
2022-11-14T04:06:16.122Z,85.17
2022-11-14T04:08:42.676Z,85.22
2022-11-14T04:11:09.222Z,85.07
2022-11-14T04:13:35.848Z,85.09
2022-11-14T04:16:02.370Z,84.49
2022-11-14T04:18:29.250Z,85.16
2022-11-14T04:20:56.040Z,85.09
2022-11-14T04:23:22.594Z,84.93
2022-11-14T04:25:49.379Z,84.88
2022-11-14T04:28:16.108Z,84.91
2022-11-14T04:30:42.821Z,85.03
2022-11-14T04:33:09.402Z,84.64
2022-11-14T04:35:35.915Z,84.71
2022-11-14T04:38:03.466Z,84.25
2022-11-14T04:40:30.052Z,84.63
2022-11-14T04:42:56.629Z,84.80
2022-11-14T04:45:23.271Z,84.61
2022-11-14T04:47:49.875Z,84.72
2022-11-14T04:50:16.551Z,84.29
2022-11-14T04:52:43.194Z,84.51
2022-11-14T04:55:10.291Z,84.59
2022-11-14T04:57:36.813Z,84.50
2022-11-14T05:00:04.995Z,84.85
2022-11-14T05:02:32.852Z,84.66
2022-11-14T05:04:59.389Z,84.63
2022-11-14T05:07:25.952Z,84.81
2022-11-14T05:09:52.559Z,84.74
2022-11-14T05:12:19.082Z,84.66
2022-11-14T05:14:45.581Z,84.84
2022-11-14T05:17:12.117Z,84.84
2022-11-14T05:19:38.647Z,84.83
2022-11-14T05:22:05.144Z,84.79
2022-11-14T05:24:31.837Z,84.43
2022-11-14T05:26:59.025Z,84.63
2022-11-14T05:29:25.546Z,84.81
2022-11-14T05:31:52.087Z,85.13
2022-11-14T05:34:18.658Z,85.11
2022-11-14T05:36:45.191Z,84.82
2022-11-14T05:39:11.699Z,84.80
2022-11-14T05:41:38.269Z,84.94
2022-11-14T05:44:05.117Z,84.95
2022-11-14T05:46:31.685Z,84.84
2022-11-14T05:48:58.255Z,84.81
2022-11-14T05:51:24.752Z,85.10
2022-11-14T05:53:51.270Z,84.89
2022-11-14T05:56:17.932Z,85.21
2022-11-14T05:58:44.486Z,85.50
2022-11-14T06:01:13.351Z,86.74
2022-11-14T06:03:42.320Z,85.94
2022-11-14T06:06:11.514Z,85.22
2022-11-14T06:08:38.469Z,83.27
2022-11-14T06:11:13.812Z,82.19
2022-11-14T06:13:40.751Z,81.93
2022-11-14T06:16:11.075Z,81.87
2022-11-14T06:18:37.927Z,82.00
2022-11-14T06:21:16.408Z,82.13
2022-11-14T06:23:43.934Z,82.00
2022-11-14T06:26:23.888Z,82.33
2022-11-14T06:28:51.641Z,82.69
2022-11-14T06:31:20.055Z,82.99
2022-11-14T06:33:47.363Z,82.93
2022-11-14T06:36:14.392Z,83.11
2022-11-14T06:38:42.251Z,83.24
2022-11-14T06:41:14.628Z,83.47
2022-11-14T06:43:43.379Z,83.70
2022-11-14T06:46:12.286Z,83.90
2022-11-14T06:48:39.450Z,83.73
2022-11-14T06:51:07.853Z,83.74
2022-11-14T06:53:36.331Z,83.82
2022-11-14T06:56:08.958Z,83.89
2022-11-14T06:58:39.033Z,83.83
2022-11-14T07:01:14.015Z,83.71
2022-11-14T07:03:41.516Z,84.16
2022-11-14T07:06:09.517Z,85.40
2022-11-14T07:08:36.175Z,85.51
2022-11-14T07:11:08.160Z,85.59
2022-11-14T07:13:35.838Z,84.78
2022-11-14T07:16:03.292Z,84.25
2022-11-14T07:18:32.204Z,84.11
2022-11-14T07:21:00.462Z,84.42
2022-11-14T07:23:27.061Z,84.52
2022-11-14T07:25:53.952Z,84.45
2022-11-14T07:28:20.575Z,84.70
2022-11-14T07:30:47.503Z,84.70
2022-11-14T07:33:14.178Z,85.06
2022-11-14T07:35:40.714Z,85.16
2022-11-14T07:38:07.377Z,84.91
2022-11-14T07:40:33.927Z,85.07
2022-11-14T07:43:01.280Z,84.97
2022-11-14T07:45:28.988Z,84.60
2022-11-14T07:47:57.354Z,84.88
2022-11-14T07:50:24.956Z,84.83
2022-11-14T07:52:55.480Z,84.81
2022-11-14T07:55:22.204Z,84.55
2022-11-14T07:57:52.899Z,84.48
2022-11-14T08:00:19.526Z,84.23
2022-11-14T08:02:46.609Z,84.48
2022-11-14T08:05:13.212Z,84.82
2022-11-14T08:07:39.735Z,84.86
2022-11-14T08:10:06.919Z,84.96
2022-11-14T08:12:33.435Z,85.15
2022-11-14T08:14:59.949Z,84.53
2022-11-14T08:17:26.509Z,84.42
2022-11-14T08:19:53.017Z,84.28
2022-11-14T08:22:19.516Z,84.51
2022-11-14T08:24:46.048Z,83.95
2022-11-14T08:27:12.560Z,83.94
2022-11-14T08:29:39.213Z,84.30
2022-11-14T08:32:05.801Z,83.93
2022-11-14T08:34:32.413Z,83.98
2022-11-14T08:36:59.171Z,83.82
2022-11-14T08:39:25.688Z,83.80
2022-11-14T08:41:52.218Z,83.76
2022-11-14T08:44:18.751Z,83.90
2022-11-14T08:46:45.268Z,83.97
2022-11-14T08:49:11.852Z,83.99
2022-11-14T08:51:38.493Z,84.15
2022-11-14T08:54:05.090Z,83.93
2022-11-14T08:56:31.610Z,84.22
2022-11-14T08:58:58.203Z,83.90
2022-11-14T09:01:24.736Z,83.97
2022-11-14T09:03:54.193Z,83.53
2022-11-14T09:06:25.086Z,83.55
2022-11-14T09:08:51.619Z,83.90
2022-11-14T09:11:19.378Z,83.54
2022-11-14T09:13:46.230Z,83.60
2022-11-14T09:16:12.766Z,83.51
2022-11-14T09:18:39.351Z,83.50
2022-11-14T09:21:08.581Z,83.54
2022-11-14T09:23:35.735Z,83.72
2022-11-14T09:26:09.852Z,83.60
2022-11-14T09:28:36.870Z,83.79
2022-11-14T09:31:06.607Z,83.36
2022-11-14T09:33:34.123Z,83.47
2022-11-14T09:36:05.837Z,83.40
2022-11-14T09:38:38.044Z,83.64
2022-11-14T09:41:25.127Z,83.79
2022-11-14T09:44:10.263Z,83.89
2022-11-14T09:46:50.128Z,83.49
2022-11-14T09:49:41.687Z,83.48
2022-11-14T09:52:26.428Z,83.69
2022-11-14T09:54:59.307Z,83.55
2022-11-14T09:57:27.307Z,83.25
2022-11-14T09:59:55.893Z,83.55
2022-11-14T10:02:52.651Z,83.36
2022-11-14T10:05:56.522Z,83.18
2022-11-14T10:08:44.988Z,83.08
2022-11-14T10:11:34.881Z,83.34
2022-11-14T10:14:15.630Z,83.27
2022-11-14T10:17:09.279Z,82.85
2022-11-14T10:19:58.518Z,83.10
2022-11-14T10:22:49.437Z,83.00
2022-11-14T10:25:47.266Z,82.68
2022-11-14T10:28:33.753Z,83.09
2022-11-14T10:31:41.939Z,82.93
2022-11-14T10:34:13.563Z,82.85
2022-11-14T10:36:47.398Z,82.96
2022-11-14T10:39:53.897Z,82.81
2022-11-14T10:42:30.721Z,82.77
2022-11-14T10:45:15.756Z,82.58
2022-11-14T10:48:00.607Z,82.73
2022-11-14T10:50:58.475Z,82.95
2022-11-14T10:53:43.662Z,82.57
2022-11-14T10:56:15.271Z,83.01
2022-11-14T10:58:49.028Z,82.55
2022-11-14T11:01:36.777Z,82.16
2022-11-14T11:04:29.476Z,82.28
2022-11-14T11:07:36.201Z,82.26
2022-11-14T11:10:22.522Z,81.86
2022-11-14T11:12:52.640Z,80.69
2022-11-14T11:15:24.933Z,80.12
2022-11-14T11:17:56.737Z,80.08
2022-11-14T11:20:26.666Z,80.13
2022-11-14T11:23:17.257Z,80.63
2022-11-14T11:25:43.991Z,79.90
2022-11-14T11:28:17.117Z,80.19
2022-11-14T11:30:58.202Z,80.18
2022-11-14T11:33:33.284Z,80.23
2022-11-14T11:36:04.586Z,80.33
2022-11-14T11:38:33.505Z,80.67
2022-11-14T11:44:16.740Z,80.16
2022-11-14T11:47:01.023Z,80.14
2022-11-14T11:49:30.580Z,79.94
2022-11-14T11:52:04.846Z,79.08
2022-11-14T11:54:46.296Z,79.30
2022-11-14T11:57:21.412Z,79.22
2022-11-14T11:59:59.364Z,79.61
2022-11-14T12:02:27.239Z,79.93
2022-11-14T12:04:56.934Z,80.22
2022-11-14T12:07:40.825Z,79.71
2022-11-14T12:10:16.137Z,80.24
2022-11-14T12:12:45.352Z,80.25
2022-11-14T12:15:29.481Z,80.35
2022-11-14T12:18:12.462Z,80.74
2022-11-14T12:20:44.374Z,81.06
2022-11-14T12:23:22.506Z,80.46
2022-11-14T12:25:59.473Z,80.58
2022-11-14T12:28:59.470Z,80.72
2022-11-14T12:31:31.626Z,80.57
2022-11-14T12:34:00.732Z,79.63
2022-11-14T12:36:33.616Z,79.65
2022-11-14T12:39:02.073Z,79.66
2022-11-14T12:41:32.532Z,79.79
2022-11-14T12:44:29.885Z,79.17
2022-11-14T12:47:05.516Z,79.31
2022-11-14T12:49:47.263Z,78.60
2022-11-14T12:52:44.545Z,78.51
2022-11-14T12:55:26.457Z,78.74
2022-11-14T12:58:12.580Z,77.87
2022-11-14T13:00:45.179Z,78.10
2022-11-14T13:03:30.814Z,78.11
2022-11-14T13:06:03.299Z,78.14
2022-11-14T13:08:39.219Z,78.16
2022-11-14T13:11:53.922Z,78.04
2022-11-14T13:14:39.869Z,77.98
2022-11-14T13:17:29.261Z,77.47
2022-11-14T13:20:15.607Z,77.38
2022-11-14T13:22:44.566Z,76.55
2022-11-14T13:25:11.070Z,77.01
2022-11-14T13:28:05.952Z,76.88
2022-11-14T13:31:12.538Z,77.13
2022-11-14T13:33:51.998Z,76.76
2022-11-14T13:36:35.148Z,76.86
2022-11-14T13:39:30.057Z,76.62
2022-11-14T13:41:56.508Z,76.68
2022-11-14T13:44:38.262Z,76.56
2022-11-14T13:47:23.959Z,76.55
2022-11-14T13:49:59.373Z,76.80
2022-11-14T13:52:29.501Z,76.50
2022-11-14T13:54:56.153Z,76.29
2022-11-14T13:57:28.269Z,76.02
2022-11-14T13:59:59.148Z,75.66
2022-11-14T14:02:44.371Z,75.95
2022-11-14T14:05:32.779Z,75.76
2022-11-14T14:08:20.836Z,75.74
2022-11-14T14:11:10.090Z,75.60
2022-11-14T14:13:55.786Z,75.86
2022-11-14T14:16:40.355Z,75.89
2022-11-14T14:19:26.476Z,75.69
2022-11-14T14:22:04.410Z,75.64
2022-11-14T14:24:40.281Z,75.68
2022-11-14T14:27:32.729Z,75.50
2022-11-14T14:29:59.276Z,76.20
2022-11-14T14:32:26.016Z,75.51
2022-11-14T14:34:56.991Z,75.92
2022-11-14T14:37:26.421Z,75.65
2022-11-14T14:40:01.342Z,75.73
2022-11-14T14:42:35.260Z,75.49
2022-11-14T14:45:03.549Z,75.84
2022-11-14T14:47:43.401Z,75.70
2022-11-14T14:50:20.073Z,75.45
2022-11-14T14:52:47.203Z,75.34
2022-11-14T14:55:28.818Z,75.98
2022-11-14T14:57:55.458Z,75.70
2022-11-14T15:00:26.641Z,75.99
2022-11-14T15:02:57.042Z,76.13
2022-11-14T15:05:29.544Z,76.38
2022-11-14T15:07:59.273Z,76.17
2022-11-14T15:10:29.780Z,76.44
2022-11-14T15:12:58.063Z,76.07
2022-11-14T15:15:28.540Z,76.39
2022-11-14T15:17:58.629Z,76.46
2022-11-14T15:20:28.275Z,76.71
2022-11-14T15:23:11.350Z,76.97
2022-11-14T15:25:38.040Z,77.27
2022-11-14T15:28:13.578Z,77.20
2022-11-14T15:30:40.154Z,77.13
2022-11-14T15:33:27.356Z,77.10
2022-11-14T15:36:11.075Z,77.14
2022-11-14T15:38:43.905Z,77.49
2022-11-14T15:41:24.299Z,77.79
2022-11-14T15:43:53.360Z,77.92
2022-11-14T15:46:36.085Z,78.07
2022-11-14T15:49:18.550Z,78.45
2022-11-14T15:51:48.606Z,78.19
2022-11-14T15:54:30.482Z,78.60
2022-11-14T15:57:00.206Z,78.55
2022-11-14T15:59:29.257Z,78.82
2022-11-14T16:02:04.472Z,79.00
2022-11-14T16:04:34.149Z,78.98
2022-11-14T16:07:00.794Z,78.92
2022-11-14T16:09:27.417Z,79.41
2022-11-14T16:11:53.920Z,79.26
2022-11-14T16:14:20.449Z,79.35
2022-11-14T16:16:47.035Z,79.31
2022-11-14T16:19:15.571Z,79.51
2022-11-14T16:21:42.725Z,79.78
2022-11-14T16:24:15.796Z,80.20
2022-11-14T16:26:42.369Z,80.60
2022-11-14T16:29:08.981Z,80.59
2022-11-14T16:31:36.577Z,80.81
2022-11-14T16:34:03.114Z,80.77
2022-11-14T16:36:29.653Z,81.12
2022-11-14T16:39:01.765Z,81.32
2022-11-14T16:41:28.800Z,81.41
2022-11-14T16:43:56.576Z,81.46
2022-11-14T16:46:24.391Z,81.70
2022-11-14T16:48:51.165Z,81.69
2022-11-14T16:51:46.136Z,81.90
2022-11-14T16:54:04.202Z,81.64
2022-11-14T16:56:31.438Z,81.77
2022-11-14T16:58:57.991Z,81.84
2022-11-14T17:01:24.790Z,82.26
2022-11-14T17:03:52.279Z,81.95
2022-11-14T17:06:18.969Z,82.33
2022-11-14T17:08:45.579Z,82.26
2022-11-14T17:11:12.139Z,82.12
2022-11-14T17:13:38.665Z,82.33
2022-11-14T17:16:05.568Z,82.26
2022-11-14T17:18:38.164Z,82.08
2022-11-14T17:21:07.541Z,82.05
2022-11-14T17:23:34.098Z,82.55
2022-11-14T17:26:09.928Z,82.18
2022-11-14T17:28:38.442Z,82.33
2022-11-14T17:31:08.887Z,82.43
2022-11-14T17:33:36.478Z,82.62
2022-11-14T17:36:05.716Z,82.46
2022-11-14T17:38:33.759Z,82.97
2022-11-14T17:41:00.436Z,82.88
2022-11-14T17:43:27.098Z,82.46
2022-11-14T17:45:55.668Z,82.46
2022-11-14T17:48:22.530Z,82.86
2022-11-14T17:50:49.196Z,82.96
2022-11-14T17:53:15.778Z,82.71
2022-11-14T17:55:42.379Z,83.08
2022-11-14T17:58:09.027Z,82.84
2022-11-14T18:00:36.026Z,83.25
2022-11-14T18:03:02.550Z,83.05
2022-11-14T18:05:29.155Z,83.37
2022-11-14T18:07:55.714Z,83.34
2022-11-14T18:10:22.208Z,83.25
2022-11-14T18:12:48.695Z,83.33
2022-11-14T18:15:15.388Z,83.52
2022-11-14T18:17:42.030Z,83.21
2022-11-14T18:20:09.175Z,83.65
2022-11-14T18:22:35.705Z,83.73
2022-11-14T18:25:07.478Z,83.73
2022-11-14T18:27:34.685Z,83.88
2022-11-14T18:30:13.802Z,83.62
2022-11-14T18:32:47.784Z,83.76
2022-11-14T18:35:14.268Z,83.76
2022-11-14T18:37:40.793Z,83.73
2022-11-14T18:40:14.781Z,83.68
2022-11-14T18:42:42.604Z,83.92
2022-11-14T18:45:09.512Z,83.88
2022-11-14T18:47:36.098Z,83.89
2022-11-14T18:50:03.909Z,83.79
2022-11-14T18:52:30.521Z,84.19
2022-11-14T18:54:57.013Z,83.82
2022-11-14T18:57:23.633Z,84.23
2022-11-14T18:59:50.253Z,83.99
2022-11-14T19:02:16.818Z,83.72
2022-11-14T19:04:43.455Z,84.06
2022-11-14T19:07:10.235Z,83.92
2022-11-14T19:09:37.774Z,84.26
2022-11-14T19:12:21.854Z,84.09
2022-11-14T19:14:53.115Z,83.90
2022-11-14T19:17:22.894Z,83.90
2022-11-14T19:19:50.361Z,83.95
2022-11-14T19:22:17.278Z,84.18
2022-11-14T19:24:46.589Z,84.00
2022-11-14T19:27:14.152Z,84.07
2022-11-14T19:29:40.875Z,84.18
2022-11-14T19:32:07.754Z,84.39
2022-11-14T19:34:34.401Z,84.39
2022-11-14T19:37:01.435Z,84.22
2022-11-14T19:39:28.562Z,84.23
2022-11-14T19:41:55.047Z,83.93
2022-11-14T19:44:21.577Z,84.22
2022-11-14T19:46:48.439Z,84.06
2022-11-14T19:49:15.282Z,84.26
2022-11-14T19:51:42.029Z,84.26
2022-11-14T19:54:10.054Z,84.41
2022-11-14T19:56:36.745Z,84.09
2022-11-14T19:59:09.662Z,84.33
2022-11-14T20:01:39.367Z,83.77
2022-11-14T20:04:07.370Z,84.38
2022-11-14T20:06:36.201Z,83.93
2022-11-14T20:09:06.100Z,84.30
2022-11-14T20:11:32.666Z,84.25
2022-11-14T20:13:59.938Z,84.37
2022-11-14T20:16:28.535Z,84.47
2022-11-14T20:18:59.072Z,84.19
2022-11-14T20:21:28.156Z,84.39
2022-11-14T20:23:54.755Z,84.44
2022-11-14T20:26:22.264Z,84.23
2022-11-14T20:28:52.065Z,84.51
2022-11-14T20:31:21.178Z,84.72
2022-11-14T20:33:49.155Z,84.17
2022-11-14T20:36:19.056Z,84.88
2022-11-14T20:38:45.805Z,84.82
2022-11-14T20:41:12.637Z,84.98
2022-11-14T20:43:39.957Z,85.03
2022-11-14T20:46:12.399Z,85.13
2022-11-14T20:48:39.395Z,85.51
2022-11-14T20:51:08.248Z,85.39
2022-11-14T20:53:34.879Z,85.55
2022-11-14T20:56:01.788Z,85.62
2022-11-14T20:58:28.614Z,86.12
2022-11-14T21:00:55.469Z,85.76
2022-11-14T21:03:22.442Z,86.42
2022-11-14T21:05:49.228Z,86.23
2022-11-14T21:08:16.885Z,86.38
2022-11-14T21:10:47.085Z,86.71
2022-11-14T21:13:36.351Z,86.77
2022-11-14T21:16:05.829Z,86.96
2022-11-14T21:18:32.781Z,87.05
2022-11-14T21:21:04.382Z,87.17
2022-11-14T21:23:31.487Z,87.20
2022-11-14T21:26:06.824Z,86.94
2022-11-14T21:28:35.029Z,87.28
2022-11-14T21:31:01.659Z,86.97
2022-11-14T21:33:30.868Z,87.25
2022-11-14T21:36:03.891Z,87.38
2022-11-14T21:38:38.541Z,87.29
2022-11-14T21:41:06.656Z,87.50
2022-11-14T21:43:34.129Z,87.42
2022-11-14T21:46:02.890Z,87.44
2022-11-14T21:48:37.483Z,87.73
2022-11-14T21:51:13.520Z,87.67
2022-11-14T21:53:41.196Z,87.75
2022-11-14T21:56:11.878Z,87.75
2022-11-14T21:58:38.747Z,87.76
2022-11-14T22:01:14.577Z,87.79
2022-11-14T22:04:00.931Z,88.27
2022-11-14T22:06:28.574Z,88.50
2022-11-14T22:08:55.922Z,88.99
2022-11-14T22:11:23.510Z,89.96
2022-11-14T22:13:50.415Z,90.87
2022-11-14T22:16:19.777Z,91.09
2022-11-14T22:18:47.037Z,90.83
2022-11-14T22:21:13.871Z,90.81
2022-11-14T22:23:40.366Z,91.01
2022-11-14T22:26:07.110Z,91.25
2022-11-14T22:28:33.753Z,92.03
2022-11-14T22:31:15.444Z,91.38
2022-11-14T22:33:46.665Z,91.79
2022-11-14T22:36:14.816Z,91.99
2022-11-14T22:38:42.330Z,92.00
2022-11-14T22:41:31.882Z,91.29
2022-11-14T22:44:00.054Z,91.69
2022-11-14T22:46:27.531Z,92.69
2022-11-14T22:48:54.606Z,92.94
2022-11-14T22:51:27.557Z,92.85
2022-11-14T22:53:56.344Z,93.87
2022-11-14T22:56:26.244Z,93.53
2022-11-14T22:58:52.822Z,93.56
2022-11-14T23:01:21.934Z,93.74
2022-11-14T23:03:53.458Z,93.93
2022-11-14T23:06:20.094Z,93.53
2022-11-14T23:08:46.844Z,92.94
2022-11-14T23:11:15.872Z,93.13
2022-11-14T23:13:44.839Z,93.31
2022-11-14T23:16:17.198Z,93.75
2022-11-14T23:18:44.383Z,94.10
2022-11-14T23:21:15.066Z,93.92
2022-11-14T23:23:42.287Z,93.85
2022-11-14T23:26:13.995Z,93.51
2022-11-14T23:28:40.782Z,93.52
2022-11-14T23:31:08.813Z,93.08
2022-11-14T23:33:35.483Z,93.42
2022-11-14T23:36:02.264Z,93.27
2022-11-14T23:38:32.034Z,92.82
2022-11-14T23:41:01.139Z,93.67
2022-11-14T23:43:29.546Z,93.60
2022-11-14T23:45:57.398Z,92.77
2022-11-14T23:48:24.504Z,92.74
2022-11-14T23:50:52.914Z,92.33
2022-11-14T23:53:20.104Z,91.52
2022-11-14T23:55:53.799Z,90.97
2022-11-14T23:58:21.802Z,90.88
